Pittsburgh, Pennsylvania
Traffic Map
Current Weather Conditions
Pittsburgh, Pennsylvania
Broken Clouds
Broken Clouds
19°
Feels Like: 19°
Wind Chill: 19° Ceiling: 3600
Heat Index: 19° Visibility: 7mi
Dew Point: 17° Wind: 7mph
Humidity: 87% Direction: 190° (S)
Pressure: 30.03in Gusts: 0mph
Raw Report DataKAGC 070653Z 19006KT 7SM BKN036 BKN045 19/17 A3003 RMK AO2 SLP164 T01940172
Traffic Incident Summary
Active as of:
Severity:
Category:
InformationThere was an issue retrieving the traffic information for this location. Please try a different location or try again shortly.
Advertisements
Track Severe Weather on mobile